Time;durP1;ratioP1;P1;durP2;ratioP2;P2;SDS_P1;SDS_P2;PMS_P1;PMS_P2;Temp;Humidity;BMP_temperature;BMP_pressure;BME280_temperature;BME280_humidity;BME280_pressure;Samples;Min_cycle;Max_cycle;Signal;HPM_P1;HPM_P2
2022/11/01 00:02:43;;;;;;;5.97;1.80;;;25.10;28.40;;;;;;6222488;28;20076;-73
2022/11/01 00:05:44;;;;;;;7.82;1.77;;;25.00;28.40;;;;;;6213280;28;20096;-73
2022/11/01 00:08:46;;;;;;;9.20;2.60;;;25.00;28.50;;;;;;6245781;28;20072;-71
2022/11/01 00:11:47;;;;;;;9.45;2.42;;;25.00;28.70;;;;;;6224376;28;20026;-71
2022/11/01 00:14:48;;;;;;;11.20;2.25;;;24.90;28.70;;;;;;6235912;28;20473;-72
2022/11/01 00:17:49;;;;;;;13.75;2.03;;;24.90;28.80;;;;;;6238259;28;20034;-72
2022/11/01 00:20:50;;;;;;;17.55;2.35;;;24.90;28.90;;;;;;6229992;28;20061;-72
2022/11/01 00:23:51;;;;;;;10.63;2.15;;;24.80;29.10;;;;;;6231137;28;20040;-72
2022/11/01 00:26:52;;;;;;;12.38;2.10;;;24.80;29.20;;;;;;6215448;28;20179;-72
2022/11/01 00:29:53;;;;;;;9.02;2.13;;;24.80;29.30;;;;;;6210465;28;20034;-72
2022/11/01 00:32:57;;;;;;;7.22;1.95;;;24.70;29.40;;;;;;6216248;28;20026;-72
2022/11/01 00:36:00;;;;;;;11.98;2.10;;;24.70;29.60;;;;;;6223802;28;20458;-72
2022/11/01 00:39:04;;;;;;;12.50;2.45;;;24.70;29.80;;;;;;6230873;28;20042;-71
2022/11/01 00:42:06;;;;;;;7.82;2.05;;;24.70;29.90;;;;;;6241542;28;20061;-72
2022/11/01 00:45:07;;;;;;;11.55;2.15;;;24.70;29.90;;;;;;6234454;28;20103;-72
2022/11/01 00:48:08;;;;;;;10.10;2.08;;;24.70;30.00;;;;;;6241708;28;20037;-72
2022/11/01 00:51:09;;;;;;;12.75;2.38;;;24.70;30.00;;;;;;6239559;28;20375;-72
2022/11/01 00:54:10;;;;;;;11.50;2.03;;;24.70;30.10;;;;;;6217993;28;20479;-72
2022/11/01 00:57:11;;;;;;;15.98;2.50;;;24.70;30.10;;;;;;6240937;28;20042;-72
2022/11/01 01:00:14;;;;;;;10.13;2.22;;;24.80;30.40;;;;;;6244421;28;20111;-72
2022/11/01 01:03:15;;;;;;;9.85;2.33;;;24.70;30.30;;;;;;6247515;28;20135;-72
2022/11/01 01:06:16;;;;;;;11.77;2.13;;;24.70;30.20;;;;;;6220226;28;20037;-72
2022/11/01 01:09:17;;;;;;;10.88;2.25;;;24.80;30.30;;;;;;6228682;28;20124;-73
2022/11/01 01:12:18;;;;;;;9.57;1.60;;;24.80;30.40;;;;;;6238036;28;20537;-73
2022/11/01 01:15:19;;;;;;;8.23;1.90;;;24.80;30.40;;;;;;6206783;28;20038;-73
2022/11/01 01:18:20;;;;;;;9.13;2.03;;;24.80;30.40;;;;;;6240212;28;20048;-73
2022/11/01 01:21:21;;;;;;;12.40;3.03;;;24.80;30.40;;;;;;6238012;28;20116;-72
2022/11/01 01:24:22;;;;;;;11.07;2.63;;;24.80;35.20;;;;;;6241411;28;20045;-72
2022/11/01 01:27:23;;;;;;;6.65;2.33;;;24.50;37.30;;;;;;6214621;28;20142;-72
2022/11/01 01:30:24;;;;;;;10.18;3.10;;;24.10;40.60;;;;;;6211025;28;20427;-72
2022/11/01 01:33:25;;;;;;;9.30;2.88;;;23.80;42.90;;;;;;6226384;28;20029;-72
2022/11/01 01:36:26;;;;;;;8.77;2.75;;;23.30;44.80;;;;;;6223871;28;20038;-71
2022/11/01 01:39:27;;;;;;;11.82;3.38;;;22.90;46.70;;;;;;6225283;28;20037;-71
2022/11/01 01:42:30;;;;;;;12.30;2.70;;;22.50;49.20;;;;;;6217692;28;20041;-71
2022/11/01 01:45:35;;;;;;;15.38;3.15;;;22.10;49.20;;;;;;6229399;28;20589;-72
2022/11/01 01:48:40;;;;;;;14.75;3.05;;;21.80;50.50;;;;;;6240169;28;20390;-72
2022/11/01 01:51:41;;;;;;;6.75;2.55;;;21.60;52.30;;;;;;6236654;28;20029;-73
2022/11/01 01:54:43;;;;;;;14.23;3.00;;;21.30;53.30;;;;;;6244912;28;20060;-73
2022/11/01 01:57:44;;;;;;;13.20;2.70;;;21.10;53.90;;;;;;6239214;28;20099;-72
2022/11/01 02:00:45;;;;;;;17.02;3.03;;;20.90;55.30;;;;;;6212787;28;20961;-71
2022/11/01 02:03:47;;;;;;;11.18;3.28;;;20.60;56.20;;;;;;6238717;28;20049;-71
2022/11/01 02:06:49;;;;;;;11.60;3.85;;;20.40;57.20;;;;;;6258615;28;20046;-70
2022/11/01 02:09:51;;;;;;;9.40;3.13;;;20.10;58.50;;;;;;6242899;28;20347;-71
2022/11/01 02:12:52;;;;;;;12.90;3.35;;;19.90;59.30;;;;;;6242612;28;20116;-70
2022/11/01 02:16:31;;;;;;;17.55;4.53;;;19.70;60.00;;;;;;6206905;28;20034;-70
2022/11/01 02:20:09;;;;;;;13.45;2.67;;;19.60;61.30;;;;;;6200495;28;20181;-71
2022/11/01 02:23:39;;;;;;;9.57;2.78;;;19.40;63.40;;;;;;6233420;28;20087;-71
2022/11/01 02:27:03;;;;;;;8.95;2.72;;;19.20;64.10;;;;;;6235725;28;20044;-71
2022/11/01 02:30:12;;;;;;;5.88;2.58;;;19.00;64.50;;;;;;6233044;28;20048;-71
2022/11/01 02:33:35;;;;;;;10.45;2.80;;;18.90;65.70;;;;;;6208205;28;20033;-70
2022/11/01 02:36:51;;;;;;;11.85;2.60;;;18.90;66.30;;;;;;6237025;28;20034;-71
2022/11/01 02:39:59;;;;;;;13.15;3.58;;;18.90;66.70;;;;;;6232297;28;20442;-71
2022/11/01 02:43:06;;;;;;;6.93;2.88;;;18.90;66.80;;;;;;6237015;28;20054;-70
2022/11/01 02:49:43;;;;;;;8.50;2.70;;;18.90;67.00;;;;;;6234653;28;20366;-70
2022/11/01 02:52:46;;;;;;;10.30;2.50;;;18.80;66.00;;;;;;6231251;28;20720;-70
2022/11/01 02:55:49;;;;;;;9.18;2.58;;;18.70;64.90;;;;;;6239200;28;20030;-70
2022/11/01 02:58:51;;;;;;;10.23;2.33;;;18.60;64.20;;;;;;6243328;28;20038;-70
2022/11/01 03:01:58;;;;;;;13.45;2.95;;;18.60;63.80;;;;;;6241294;28;20041;-70
2022/11/01 03:04:59;;;;;;;12.38;3.17;;;18.60;63.60;;;;;;6238407;28;20433;-71
2022/11/01 03:08:05;;;;;;;15.82;2.92;;;18.50;63.50;;;;;;6221301;28;20033;-71
2022/11/01 03:11:12;;;;;;;9.25;2.78;;;18.50;63.20;;;;;;6181100;28;20057;-71
2022/11/01 03:14:25;;;;;;;13.82;2.90;;;18.50;63.10;;;;;;6237315;28;20042;-70
2022/11/01 03:17:37;;;;;;;15.98;3.58;;;18.50;63.20;;;;;;6235546;28;20042;-71
2022/11/01 03:20:58;;;;;;;11.60;3.20;;;18.50;63.40;;;;;;6231563;28;20034;-70
2022/11/01 03:24:12;;;;;;;15.65;2.95;;;18.40;63.70;;;;;;6233368;28;20465;-70
2022/11/01 03:27:36;;;;;;;13.15;2.42;;;18.40;64.10;;;;;;6240941;28;20026;-71
2022/11/01 03:30:43;;;;;;;9.63;3.38;;;18.40;64.40;;;;;;6235324;28;20030;-70
2022/11/01 03:33:49;;;;;;;6.70;2.80;;;18.40;64.60;;;;;;6236641;28;20030;-70
2022/11/01 03:36:55;;;;;;;13.45;3.30;;;18.40;64.70;;;;;;6246341;28;20044;-70
2022/11/01 03:40:01;;;;;;;12.98;3.40;;;18.40;64.70;;;;;;6223064;28;20096;-70
2022/11/01 03:43:08;;;;;;;10.02;3.00;;;18.40;64.80;;;;;;6220193;28;20566;-70
2022/11/01 03:46:09;;;;;;;9.93;2.70;;;18.40;65.00;;;;;;6232199;28;20121;-70
2022/11/01 03:49:18;;;;;;;9.07;3.15;;;18.40;65.10;;;;;;6229872;28;20033;-70
2022/11/01 03:52:19;;;;;;;12.48;3.40;;;18.40;65.30;;;;;;6226979;28;20041;-70
2022/11/01 03:55:20;;;;;;;13.65;3.28;;;18.40;65.30;;;;;;6219201;28;20037;-70
2022/11/01 03:58:21;;;;;;;10.88;3.08;;;18.40;65.70;;;;;;6232204;28;20443;-71
2022/11/01 04:01:22;;;;;;;14.75;3.63;;;18.40;66.10;;;;;;6237098;28;20045;-71
2022/11/01 04:04:24;;;;;;;8.82;3.05;;;18.30;66.50;;;;;;6238623;28;20399;-71
2022/11/01 04:07:24;;;;;;;10.23;3.05;;;18.30;66.90;;;;;;6238826;28;20099;-71
2022/11/01 04:10:27;;;;;;;12.90;3.65;;;18.30;67.10;;;;;;6224452;28;20033;-70
2022/11/01 04:13:28;;;;;;;8.00;3.40;;;18.30;67.10;;;;;;6241210;28;20100;-70
2022/11/01 04:23:08;;;;;;;16.50;3.53;;;18.30;67.90;;;;;;6222923;28;20050;-71
2022/11/01 04:26:15;;;;;;;10.85;3.17;;;18.20;68.20;;;;;;6213899;28;20030;-71
2022/11/01 04:29:16;;;;;;;12.60;3.13;;;18.20;68.40;;;;;;6213471;28;20044;-71
2022/11/01 04:32:17;;;;;;;10.93;2.95;;;18.10;68.50;;;;;;6216529;28;20046;-71
2022/11/01 04:35:18;;;;;;;7.85;3.50;;;18.10;68.80;;;;;;6211796;28;24856;-71
2022/11/01 04:38:19;;;;;;;14.23;3.08;;;18.10;68.90;;;;;;6220464;28;20046;-71
2022/11/01 04:41:22;;;;;;;8.43;3.65;;;18.10;68.90;;;;;;6219371;28;20379;-70
2022/11/01 04:44:23;;;;;;;14.52;3.58;;;18.10;69.00;;;;;;6236821;28;20537;-70
2022/11/01 04:47:24;;;;;;;14.00;4.03;;;18.10;69.10;;;;;;6236048;28;20044;-71
2022/11/01 04:50:25;;;;;;;8.50;3.70;;;18.10;69.20;;;;;;6241536;28;20029;-71
2022/11/01 04:53:26;;;;;;;13.80;4.03;;;18.10;69.30;;;;;;6223726;28;20049;-70
2022/11/01 04:56:27;;;;;;;11.77;3.75;;;18.10;69.60;;;;;;6225988;28;20037;-71
2022/11/01 04:59:28;;;;;;;8.57;3.20;;;18.10;69.60;;;;;;6220299;28;20493;-70
2022/11/01 05:02:29;;;;;;;11.35;3.50;;;18.10;69.70;;;;;;6235071;28;20378;-70
2022/11/01 05:05:30;;;;;;;9.23;3.97;;;18.10;69.90;;;;;;6251296;28;20077;-70
2022/11/01 05:08:31;;;;;;;10.63;3.58;;;18.10;70.00;;;;;;6212082;28;20037;-70
2022/11/01 05:11:32;;;;;;;9.45;3.40;;;18.10;70.10;;;;;;6240657;28;20030;-70
2022/11/01 05:14:34;;;;;;;10.00;3.20;;;18.10;70.20;;;;;;6237891;28;20428;-70
2022/11/01 05:17:39;;;;;;;16.63;3.90;;;18.10;70.10;;;;;;6239038;28;20315;-70
2022/11/01 05:20:40;;;;;;;14.15;3.22;;;18.10;70.00;;;;;;6225354;28;20458;-71
2022/11/01 05:23:41;;;;;;;14.55;3.67;;;18.10;69.90;;;;;;6233373;28;20088;-71
2022/11/01 05:26:43;;;;;;;14.25;3.33;;;18.20;70.00;;;;;;6233893;28;20041;-71
2022/11/01 05:29:44;;;;;;;10.20;3.22;;;18.20;70.00;;;;;;6237989;28;20029;-71
2022/11/01 05:32:45;;;;;;;8.27;4.30;;;18.10;70.00;;;;;;6223480;28;20045;-70
2022/11/01 05:35:46;;;;;;;14.82;3.22;;;18.10;70.00;;;;;;6220505;28;20033;-72
2022/11/01 05:38:47;;;;;;;8.80;3.28;;;18.10;70.20;;;;;;6234398;28;20404;-71
2022/11/01 05:41:48;;;;;;;15.50;4.93;;;18.10;70.40;;;;;;6225909;28;20050;-71
2022/11/01 05:44:50;;;;;;;13.18;4.13;;;18.10;70.50;;;;;;6210465;28;20064;-71
2022/11/01 05:47:51;;;;;;;13.85;3.83;;;18.10;70.60;;;;;;6207523;28;20050;-71
2022/11/01 05:50:52;;;;;;;10.57;3.92;;;18.10;70.90;;;;;;6230921;28;20056;-71
2022/11/01 05:53:53;;;;;;;8.77;3.53;;;18.10;71.00;;;;;;6228096;28;20049;-71
2022/11/01 05:56:54;;;;;;;13.20;3.80;;;18.10;71.10;;;;;;6223706;28;20359;-71
2022/11/01 05:59:55;;;;;;;19.60;4.53;;;18.10;71.20;;;;;;6214454;28;20101;-71
2022/11/01 06:02:57;;;;;;;11.45;3.65;;;18.10;71.10;;;;;;6220543;28;20061;-71
2022/11/01 06:05:59;;;;;;;11.38;3.65;;;18.10;71.30;;;;;;6230968;28;20056;-71
2022/11/01 06:09:01;;;;;;;10.07;3.55;;;18.10;71.40;;;;;;6205793;28;20119;-71
2022/11/01 06:12:03;;;;;;;10.95;3.90;;;18.10;71.30;;;;;;6212560;28;20046;-70
2022/11/01 06:15:04;;;;;;;13.50;3.88;;;18.20;71.30;;;;;;6229265;28;20119;-71
2022/11/01 06:18:05;;;;;;;12.52;4.07;;;18.20;71.10;;;;;;6239301;28;20041;-71
2022/11/01 06:21:06;;;;;;;14.18;4.10;;;18.20;71.10;;;;;;6216756;28;20482;-71
2022/11/01 06:24:10;;;;;;;10.82;4.25;;;18.20;71.00;;;;;;6230485;28;20042;-71
2022/11/01 06:27:11;;;;;;;14.82;4.93;;;18.20;71.10;;;;;;6219040;28;20379;-70
2022/11/01 06:30:12;;;;;;;10.25;3.88;;;18.30;71.10;;;;;;6229580;28;20041;-70
2022/11/01 06:33:13;;;;;;;14.45;4.00;;;18.30;71.10;;;;;;6243209;28;20093;-73
2022/11/01 06:36:14;;;;;;;13.48;3.88;;;18.30;71.10;;;;;;6225187;28;20037;-71
2022/11/01 06:39:16;;;;;;;11.63;3.85;;;18.30;71.10;;;;;;6240213;28;20356;-71
2022/11/01 06:42:17;;;;;;;26.00;4.68;;;18.30;70.90;;;;;;6243093;28;20117;-71
2022/11/01 06:45:18;;;;;;;12.75;4.80;;;18.40;70.80;;;;;;6250910;28;20390;-70
2022/11/01 06:48:20;;;;;;;13.88;4.10;;;18.40;70.70;;;;;;6247084;28;20037;-71
2022/11/01 06:51:21;;;;;;;11.98;3.92;;;18.40;70.60;;;;;;6216211;28;20109;-71
2022/11/01 06:54:22;;;;;;;10.88;3.67;;;18.50;70.40;;;;;;6223822;28;20116;-71
2022/11/01 06:57:23;;;;;;;16.48;3.60;;;18.50;70.30;;;;;;6254781;28;20398;-71
2022/11/01 07:00:25;;;;;;;13.82;3.70;;;18.50;70.30;;;;;;6214688;28;20034;-71
2022/11/01 07:03:26;;;;;;;9.27;3.75;;;18.50;70.20;;;;;;6213130;28;20038;-72
2022/11/01 07:06:29;;;;;;;12.40;4.28;;;18.50;70.20;;;;;;6216353;28;20073;-71
2022/11/01 07:09:30;;;;;;;10.68;3.97;;;18.50;70.50;;;;;;6216460;28;20034;-71
2022/11/01 07:12:31;;;;;;;8.35;3.90;;;18.50;70.50;;;;;;6236204;28;20121;-71
2022/11/01 07:15:32;;;;;;;12.90;4.38;;;18.50;70.50;;;;;;6215840;28;20059;-71
2022/11/01 07:18:33;;;;;;;10.30;4.00;;;18.50;70.50;;;;;;6222711;28;20034;-71
2022/11/01 07:21:35;;;;;;;16.08;4.43;;;18.50;70.50;;;;;;6235756;28;20059;-72
2022/11/01 07:24:36;;;;;;;7.05;3.80;;;18.50;70.50;;;;;;6217887;28;20029;-72
2022/11/01 07:27:37;;;;;;;16.40;4.30;;;18.50;70.50;;;;;;6238012;28;20048;-71
2022/11/01 07:30:38;;;;;;;11.80;4.13;;;18.50;70.60;;;;;;6242451;28;20052;-71
2022/11/01 07:33:39;;;;;;;17.83;4.50;;;18.50;70.60;;;;;;6237722;28;20033;-72
2022/11/01 07:36:40;;;;;;;11.40;4.05;;;18.60;70.60;;;;;;6244271;28;20038;-71
2022/11/01 07:39:41;;;;;;;10.98;4.38;;;18.60;70.60;;;;;;6233169;28;20398;-72
2022/11/01 07:42:44;;;;;;;11.32;4.90;;;18.60;70.50;;;;;;6214481;28;20517;-72
2022/11/01 07:45:46;;;;;;;14.23;5.15;;;18.60;70.50;;;;;;6231716;28;20355;-72
2022/11/01 07:48:47;;;;;;;15.95;4.43;;;18.70;70.60;;;;;;6234986;28;20029;-72
2022/11/01 07:51:48;;;;;;;10.85;4.35;;;18.70;70.60;;;;;;6206125;28;20037;-72
2022/11/01 07:54:49;;;;;;;12.77;4.30;;;18.70;70.60;;;;;;6232676;28;20040;-71
2022/11/01 07:57:50;;;;;;;22.05;4.82;;;18.70;70.70;;;;;;6241285;28;20046;-70
2022/11/01 08:00:51;;;;;;;15.90;4.95;;;18.70;70.70;;;;;;6241037;28;20049;-71
2022/11/01 08:03:52;;;;;;;15.95;4.38;;;18.70;70.60;;;;;;6221822;28;20497;-71
2022/11/01 08:06:53;;;;;;;11.50;4.57;;;18.80;70.60;;;;;;6236594;28;20041;-71
2022/11/01 08:09:54;;;;;;;17.27;5.15;;;18.80;70.60;;;;;;6210320;28;20029;-72
2022/11/01 08:13:12;;;;;;;12.15;4.22;;;18.80;70.40;;;;;;6216419;28;20057;-72
2022/11/01 08:16:16;;;;;;;12.15;4.47;;;18.90;70.30;;;;;;6238474;28;20042;-71
2022/11/01 08:19:18;;;;;;;9.85;4.80;;;18.90;70.00;;;;;;6237054;28;20033;-72
2022/11/01 08:22:19;;;;;;;20.05;4.75;;;18.90;69.90;;;;;;6235871;28;20537;-72
2022/11/01 08:25:21;;;;;;;22.73;5.00;;;19.00;69.90;;;;;;6247819;28;20132;-72
2022/11/01 08:28:22;;;;;;;12.07;4.43;;;18.90;69.70;;;;;;6232608;28;20037;-71
2022/11/01 08:31:23;;;;;;;10.73;4.55;;;18.90;69.80;;;;;;6239783;28;20037;-71
2022/11/01 08:34:24;;;;;;;13.68;5.72;;;18.90;69.70;;;;;;6242444;28;20553;-71
2022/11/01 08:37:25;;;;;;;11.57;4.53;;;19.00;69.80;;;;;;6241901;28;20049;-72
2022/11/01 08:40:29;;;;;;;12.07;4.50;;;19.00;69.70;;;;;;6233047;28;20041;-70
2022/11/01 08:43:31;;;;;;;12.15;4.88;;;19.00;69.70;;;;;;6237728;28;20034;-72
2022/11/01 08:46:32;;;;;;;9.27;5.10;;;19.00;69.50;;;;;;6217419;28;20085;-71
2022/11/01 08:49:33;;;;;;;15.65;4.47;;;19.00;69.30;;;;;;6235059;28;20131;-72
2022/11/01 08:52:34;;;;;;;6.90;3.67;;;19.20;69.50;;;;;;6242690;28;20041;-72
2022/11/01 08:55:36;;;;;;;17.92;4.90;;;19.20;69.30;;;;;;6231237;28;20038;-71
2022/11/01 08:58:37;;;;;;;21.13;5.35;;;19.30;69.10;;;;;;6239694;28;20441;-72
2022/11/01 09:01:38;;;;;;;17.15;5.45;;;19.50;68.70;;;;;;6215669;28;20041;-72
2022/11/01 09:04:39;;;;;;;17.13;5.50;;;19.60;68.60;;;;;;6215289;28;20042;-71
2022/11/01 09:07:40;;;;;;;10.48;4.22;;;19.80;68.20;;;;;;6222854;28;20312;-71
2022/11/01 09:10:41;;;;;;;9.68;4.50;;;19.90;67.80;;;;;;6233871;28;20045;-71
2022/11/01 09:13:42;;;;;;;11.05;4.25;;;20.00;67.60;;;;;;6238718;28;20037;-71
2022/11/01 09:16:44;;;;;;;12.77;3.45;;;20.10;67.00;;;;;;6225644;28;20121;-71
2022/11/01 09:19:45;;;;;;;9.30;3.30;;;20.10;67.00;;;;;;6225776;28;20048;-71
2022/11/01 09:22:50;;;;;;;9.48;2.95;;;20.30;66.90;;;;;;6248740;28;20108;-72
2022/11/01 09:25:52;;;;;;;10.02;3.45;;;20.40;66.70;;;;;;6201478;28;20068;-71
2022/11/01 09:28:57;;;;;;;14.80;3.75;;;20.50;65.90;;;;;;6234140;28;20034;-72
2022/11/01 09:31:58;;;;;;;7.03;3.42;;;20.60;65.30;;;;;;6229635;28;20110;-72
2022/11/01 09:34:59;;;;;;;11.65;3.15;;;20.60;65.10;;;;;;6236146;28;20046;-72
2022/11/01 09:38:02;;;;;;;12.20;3.70;;;20.60;64.70;;;;;;6217747;28;20095;-72
2022/11/01 09:41:14;;;;;;;8.40;3.47;;;20.70;64.60;;;;;;6225511;28;20164;-72
2022/11/01 09:44:25;;;;;;;14.02;2.78;;;20.80;64.40;;;;;;6219772;28;20510;-72
2022/11/01 09:47:29;;;;;;;12.23;3.60;;;20.80;63.80;;;;;;6233500;28;20439;-72
2022/11/01 09:50:37;;;;;;;10.45;3.15;;;20.90;63.40;;;;;;6219480;28;20481;-71
2022/11/01 09:53:38;;;;;;;17.75;2.97;;;21.00;63.50;;;;;;6235015;28;20459;-72
2022/11/01 09:57:18;;;;;;;9.38;3.33;;;21.10;62.90;;;;;;6240808;28;20037;-71
2022/11/01 10:00:20;;;;;;;9.60;3.55;;;21.30;62.70;;;;;;6159958;28;20101;-71
2022/11/01 10:03:32;;;;;;;9.38;2.88;;;21.50;62.00;;;;;;6171896;28;20332;-73
2022/11/01 10:06:41;;;;;;;5.57;2.65;;;21.50;61.40;;;;;;6190447;28;20042;-72
2022/11/01 10:09:53;;;;;;;10.23;2.95;;;21.60;61.30;;;;;;6185195;28;20066;-73
2022/11/01 10:13:21;;;;;;;11.00;3.00;;;21.70;60.90;;;;;;6187849;28;20050;-72
2022/11/01 10:16:29;;;;;;;6.72;3.35;;;21.80;60.30;;;;;;6183148;28;20051;-73
2022/11/01 10:19:34;;;;;;;10.35;3.17;;;22.00;59.90;;;;;;6171813;28;20121;-73
2022/11/01 10:22:37;;;;;;;12.85;3.35;;;22.10;59.60;;;;;;6188098;28;20039;-71
2022/11/01 10:25:47;;;;;;;11.27;3.30;;;22.10;59.40;;;;;;6185739;28;20049;-72
2022/11/01 10:29:12;;;;;;;11.38;3.30;;;22.20;59.40;;;;;;6187725;28;20038;-72
2022/11/01 10:32:40;;;;;;;7.82;2.65;;;22.20;59.40;;;;;;6188343;28;20510;-72
2022/11/01 10:35:46;;;;;;;9.18;2.88;;;22.20;59.40;;;;;;6191121;28;20383;-72
2022/11/01 10:38:55;;;;;;;8.15;2.83;;;22.30;59.10;;;;;;6232798;28;20054;-72
2022/11/01 10:41:56;;;;;;;6.45;2.67;;;22.30;58.90;;;;;;6239758;28;20117;-73
2022/11/01 10:45:06;;;;;;;8.57;2.60;;;22.40;58.80;;;;;;6257274;28;20037;-71
2022/11/01 10:48:32;;;;;;;29.88;6.45;;;22.40;58.60;;;;;;6235063;28;20068;-72
2022/11/01 10:51:35;;;;;;;20.27;2.92;;;22.60;58.70;;;;;;6178250;28;20042;-72
2022/11/01 10:54:41;;;;;;;6.80;3.13;;;22.80;58.70;;;;;;6188244;28;20053;-71
2022/11/01 10:57:45;;;;;;;12.98;3.67;;;23.20;58.30;;;;;;6157285;28;20040;-71
2022/11/01 11:00:48;;;;;;;10.27;3.80;;;23.70;57.50;;;;;;6170240;28;20050;-72
2022/11/01 11:03:50;;;;;;;16.05;4.57;;;24.10;56.60;;;;;;6178883;28;20034;-72
2022/11/01 11:06:51;;;;;;;8.65;2.78;;;24.20;55.70;;;;;;6166955;28;20043;-72
2022/11/01 11:09:53;;;;;;;12.55;3.17;;;24.20;55.60;;;;;;6140384;28;20031;-72
2022/11/01 11:13:04;;;;;;;6.57;2.92;;;24.20;55.70;;;;;;6157811;28;20045;-71
2022/11/01 11:16:06;;;;;;;6.20;2.97;;;24.20;55.30;;;;;;6183220;28;20050;-71
2022/11/01 11:19:18;;;;;;;13.15;3.33;;;24.30;54.90;;;;;;6184772;28;20090;-72
2022/11/01 11:22:21;;;;;;;9.93;3.20;;;24.30;54.40;;;;;;6169871;28;20085;-72
2022/11/01 11:25:34;;;;;;;9.25;3.22;;;24.50;54.50;;;;;;6188402;28;20038;-72
2022/11/01 11:28:42;;;;;;;6.00;2.80;;;24.50;54.20;;;;;;6213129;28;20030;-73
2022/11/01 11:31:44;;;;;;;9.30;2.90;;;24.50;54.10;;;;;;6248363;28;20033;-71
2022/11/01 11:34:57;;;;;;;5.30;3.00;;;24.30;54.10;;;;;;6230270;28;20466;-74
2022/11/01 11:38:01;;;;;;;6.20;2.60;;;24.20;54.20;;;;;;6254739;28;20111;-72
2022/11/01 11:41:02;;;;;;;10.57;2.65;;;24.40;53.90;;;;;;6261673;28;20342;-72
2022/11/01 11:44:40;;;;;;;5.75;2.28;;;24.80;53.40;;;;;;6242404;28;20100;-71
2022/11/01 11:47:42;;;;;;;2.85;1.90;;;25.30;52.20;;;;;;6232263;28;20038;-73
2022/11/01 11:50:43;;;;;;;6.13;2.35;;;25.90;50.90;;;;;;6243489;28;20044;-73
2022/11/01 11:54:04;;;;;;;7.57;2.53;;;25.90;50.80;;;;;;6236202;28;20121;-72
2022/11/01 11:57:28;;;;;;;4.07;2.00;;;26.00;50.60;;;;;;6233718;28;20045;-72
2022/11/01 12:00:36;;;;;;;6.85;2.47;;;26.00;49.50;;;;;;6236160;28;20030;-72
2022/11/01 12:04:14;;;;;;;10.70;2.53;;;25.90;49.60;;;;;;6254940;28;20030;-71
2022/11/01 12:07:28;;;;;;;6.97;2.80;;;25.70;49.80;;;;;;6167897;28;20387;-72
2022/11/01 12:10:32;;;;;;;8.15;2.28;;;25.50;50.10;;;;;;6198519;28;20375;-72
2022/11/01 12:13:36;;;;;;;10.90;2.80;;;25.30;50.20;;;;;;6183745;28;20030;-72
2022/11/01 12:16:41;;;;;;;11.30;2.65;;;25.20;50.00;;;;;;6181080;28;20468;-71
2022/11/01 12:19:42;;;;;;;7.95;2.50;;;25.00;49.80;;;;;;6170172;28;20041;-72
2022/11/01 12:23:14;;;;;;;7.53;3.47;;;24.90;50.00;;;;;;6181686;28;20061;-73
2022/11/01 12:26:17;;;;;;;5.25;1.95;;;24.80;50.00;;;;;;6153473;28;20042;-73
2022/11/01 12:29:54;;;;;;;7.28;2.63;;;24.70;50.30;;;;;;6184591;28;20190;-73
2022/11/01 12:33:01;;;;;;;22.70;4.53;;;24.50;50.70;;;;;;6188098;28;20545;-73
2022/11/01 12:36:02;;;;;;;10.17;2.40;;;24.50;50.90;;;;;;6170428;28;20066;-72
2022/11/01 12:39:26;;;;;;;5.32;1.98;;;24.50;50.90;;;;;;6154458;28;20407;-72
2022/11/01 12:42:35;;;;;;;12.18;2.83;;;24.30;50.80;;;;;;6180906;28;20042;-71
2022/11/01 12:45:52;;;;;;;8.05;2.45;;;24.10;51.10;;;;;;6248353;28;20049;-72
2022/11/01 12:48:58;;;;;;;7.68;2.13;;;23.90;51.20;;;;;;6239182;28;20458;-72
2022/11/01 12:52:15;;;;;;;6.65;2.33;;;23.70;51.40;;;;;;6242025;28;20041;-71
2022/11/01 12:55:40;;;;;;;7.43;2.20;;;23.50;51.80;;;;;;6254246;28;20041;-72
2022/11/01 12:58:42;;;;;;;6.00;1.88;;;23.40;52.10;;;;;;6238098;28;20048;-72
2022/11/01 13:02:16;;;;;;;4.72;1.80;;;23.30;52.10;;;;;;6237302;28;20034;-71
2022/11/01 13:05:26;;;;;;;8.50;2.35;;;23.20;52.20;;;;;;6235348;28;20112;-72
2022/11/01 13:09:12;;;;;;;8.68;2.55;;;23.20;52.20;;;;;;6239394;28;20029;-72
2022/11/01 13:12:22;;;;;;;6.07;2.10;;;23.20;52.20;;;;;;6238609;28;20482;-72
2022/11/01 13:15:26;;;;;;;7.80;2.20;;;23.10;52.20;;;;;;6232127;28;20037;-72
2022/11/01 13:18:50;;;;;;;5.35;2.50;;;23.10;52.30;;;;;;6200674;28;20358;-72
2022/11/01 13:22:21;;;;;;;5.40;2.05;;;23.10;52.40;;;;;;6207325;28;20068;-73
2022/11/01 13:25:42;;;;;;;7.28;1.75;;;23.00;52.50;;;;;;6207055;28;20033;-72
2022/11/01 13:29:38;;;;;;;9.32;2.22;;;23.00;52.60;;;;;;6237725;28;20108;-72
2022/11/01 13:32:51;;;;;;;8.63;1.98;;;23.00;52.70;;;;;;6180189;28;20042;-72
2022/11/01 13:36:05;;;;;;;6.40;1.73;;;23.10;52.70;;;;;;6157248;28;20142;-73
2022/11/01 13:39:11;;;;;;;4.50;1.75;;;23.00;52.70;;;;;;6176001;28;20373;-72
2022/11/01 13:42:17;;;;;;;6.38;2.08;;;23.00;52.60;;;;;;6178119;28;20502;-72
2022/11/01 13:45:39;;;;;;;3.17;1.75;;;23.00;52.50;;;;;;6168216;28;20097;-72
2022/11/01 13:48:55;;;;;;;6.30;1.73;;;23.00;52.50;;;;;;6158207;28;20464;-71
2022/11/01 13:52:11;;;;;;;8.38;1.92;;;23.10;52.50;;;;;;6183377;28;20448;-72
2022/11/01 13:55:31;;;;;;;4.65;2.08;;;23.10;52.40;;;;;;6150458;28;20047;-71
2022/11/01 13:58:32;;;;;;;6.85;2.00;;;23.10;52.40;;;;;;6180458;28;20047;-71
2022/11/01 14:01:38;;;;;;;3.88;1.83;;;23.10;52.40;;;;;;6182518;28;20050;-72
2022/11/01 14:04:40;;;;;;;7.10;2.83;;;23.10;52.50;;;;;;6145711;28;20093;-71
2022/11/01 14:07:44;;;;;;;5.97;1.95;;;23.20;52.50;;;;;;6223331;28;20037;-72
2022/11/01 14:10:47;;;;;;;5.50;2.33;;;23.20;52.50;;;;;;6234546;28;20430;-73
2022/11/01 14:13:48;;;;;;;5.53;2.55;;;23.20;52.50;;;;;;6232424;28;20030;-73
2022/11/01 14:16:49;;;;;;;6.03;2.20;;;23.20;52.40;;;;;;6230504;28;20033;-72
2022/11/01 14:19:54;;;;;;;3.33;1.83;;;23.20;52.40;;;;;;6202664;28;20464;-72
2022/11/01 14:22:57;;;;;;;8.38;2.20;;;23.20;52.40;;;;;;6230954;28;20057;-71
2022/11/01 14:26:20;;;;;;;5.45;2.35;;;23.20;52.50;;;;;;6235159;28;20045;-71
2022/11/01 14:29:21;;;;;;;5.60;1.88;;;23.10;52.60;;;;;;6238164;28;20037;-72
2022/11/01 14:32:26;;;;;;;4.53;2.10;;;23.10;52.60;;;;;;6237254;28;20029;-72
2022/11/01 14:35:34;;;;;;;2.72;1.45;;;23.10;52.60;;;;;;6240100;28;20061;-72
2022/11/01 14:38:44;;;;;;;9.27;1.80;;;23.10;52.80;;;;;;6233855;28;20374;-71
2022/11/01 14:41:47;;;;;;;10.57;2.22;;;23.10;52.90;;;;;;6216560;28;20048;-71
2022/11/01 14:44:51;;;;;;;7.90;2.17;;;23.10;53.00;;;;;;6236724;28;20352;-71
2022/11/01 14:47:57;;;;;;;7.72;1.90;;;23.10;53.20;;;;;;6218054;28;20086;-71
2022/11/01 14:51:04;;;;;;;5.05;2.63;;;23.10;53.30;;;;;;6245250;28;20382;-72
2022/11/01 14:54:34;;;;;;;2.47;1.67;;;23.10;53.40;;;;;;6221545;28;20176;-72
2022/11/01 14:57:35;;;;;;;3.45;2.08;;;23.10;53.50;;;;;;6207191;28;20038;-72
2022/11/01 15:00:37;;;;;;;4.50;1.85;;;23.10;53.60;;;;;;6174142;28;20479;-72
2022/11/01 15:03:38;;;;;;;6.10;1.90;;;23.10;53.80;;;;;;6188161;28;20083;-71
2022/11/01 15:06:42;;;;;;;5.53;1.80;;;23.00;53.80;;;;;;6202037;28;20049;-71
2022/11/01 15:09:59;;;;;;;6.38;1.90;;;23.00;53.90;;;;;;6210842;28;20045;-72
2022/11/01 15:13:01;;;;;;;5.68;1.70;;;22.90;54.00;;;;;;6189782;28;20046;-72
2022/11/01 15:16:16;;;;;;;7.78;1.98;;;22.80;54.20;;;;;;6207725;28;20399;-73
2022/11/01 15:19:26;;;;;;;6.45;1.73;;;22.70;54.40;;;;;;6214952;28;20042;-72
2022/11/01 15:22:31;;;;;;;5.57;1.70;;;22.60;54.50;;;;;;6209232;28;20038;-72
2022/11/01 15:25:35;;;;;;;19.25;2.25;;;22.60;54.60;;;;;;6187589;28;20038;-72
2022/11/01 15:28:45;;;;;;;5.30;2.22;;;22.50;54.70;;;;;;6192675;28;20034;-72
2022/11/01 15:31:58;;;;;;;8.35;2.10;;;22.40;54.80;;;;;;6184045;28;20423;-72
2022/11/01 15:35:04;;;;;;;3.50;1.73;;;22.30;55.00;;;;;;6198652;28;20132;-71
2022/11/01 15:38:18;;;;;;;10.60;1.77;;;22.30;55.30;;;;;;6233763;28;20383;-73
2022/11/01 15:41:28;;;;;;;6.93;1.75;;;22.20;55.40;;;;;;6233149;28;20038;-72
2022/11/01 15:44:29;;;;;;;13.45;2.42;;;22.20;55.50;;;;;;6234851;28;20025;-72
2022/11/01 15:47:30;;;;;;;5.15;2.15;;;22.20;55.60;;;;;;6239573;28;20040;-71
2022/11/01 15:50:45;;;;;;;8.15;2.25;;;22.10;55.70;;;;;;6233194;28;20068;-72
2022/11/01 15:53:47;;;;;;;6.88;2.60;;;22.10;55.90;;;;;;6231938;28;20030;-72
2022/11/01 15:56:55;;;;;;;6.50;2.50;;;22.10;55.90;;;;;;6231496;28;20030;-72
2022/11/01 16:00:05;;;;;;;20.83;2.38;;;22.10;56.00;;;;;;6240178;28;20033;-71
2022/11/01 16:03:25;;;;;;;9.23;2.40;;;22.00;56.00;;;;;;6240415;28;20033;-72
2022/11/01 16:06:43;;;;;;;7.72;2.92;;;22.00;56.10;;;;;;6243913;28;20467;-72
2022/11/01 16:09:53;;;;;;;11.77;3.93;;;21.90;56.10;;;;;;6212148;28;20037;-73
2022/11/01 16:12:56;;;;;;;12.75;3.33;;;21.90;56.30;;;;;;6217676;28;20738;-72